Time;durP1;ratioP1;P1;durP2;ratioP2;P2;SDS_P1;SDS_P2;PMS_P1;PMS_P2;Temp;Humidity;BMP_temperature;BMP_pressure;BME280_temperature;BME280_humidity;BME280_pressure;Samples;Min_cycle;Max_cycle;Signal;HPM_P1;HPM_P2
2022/02/19 00:00:47;;;;;;;14.30;2.33;;;;;;;5.51;63.21;100121.63;5033772;28;20025;-72
2022/02/19 00:03:12;;;;;;;8.70;2.17;;;;;;;5.58;63.23;100124.28;5033755;28;20021;-72
2022/02/19 00:05:38;;;;;;;12.55;2.65;;;;;;;5.53;63.38;100134.28;5033350;28;20025;-71
2022/02/19 00:08:04;;;;;;;16.65;2.47;;;;;;;5.49;63.73;100140.69;5033610;28;20105;-72
2022/02/19 00:10:32;;;;;;;19.77;2.67;;;;;;;5.56;64.73;100141.63;5033724;28;20076;-72
2022/02/19 00:12:58;;;;;;;12.57;2.13;;;;;;;5.48;65.61;100141.66;5033587;28;20033;-71
2022/02/19 00:15:25;;;;;;;17.83;2.30;;;;;;;5.52;65.65;100159.09;5033601;28;20105;-72
2022/02/19 00:17:50;;;;;;;18.20;2.22;;;;;;;5.38;65.73;100142.69;5032216;28;20033;-71
2022/02/19 00:20:15;;;;;;;18.90;2.67;;;;;;;5.42;66.04;100164.44;5033561;28;20112;-72
2022/02/19 00:22:41;;;;;;;16.27;2.70;;;;;;;5.43;65.74;100175.47;5032300;28;20025;-72
2022/02/19 00:25:07;;;;;;;21.50;3.28;;;;;;;5.41;65.64;100174.88;5033385;28;20079;-71
2022/02/19 00:27:32;;;;;;;16.77;2.30;;;;;;;5.42;66.20;100182.38;5032372;28;20388;-72
2022/02/19 00:29:57;;;;;;;12.63;1.95;;;;;;;5.49;66.31;100192.75;5031230;28;20076;-71
2022/02/19 00:32:23;;;;;;;20.50;2.33;;;;;;;5.43;65.78;100194.22;5031647;28;20052;-71
2022/02/19 00:34:48;;;;;;;10.88;2.33;;;;;;;5.49;66.10;100215.00;5036334;28;20025;-71
2022/02/19 00:37:13;;;;;;;18.35;2.38;;;;;;;5.54;65.68;100218.69;5036792;28;20025;-71
2022/02/19 00:39:39;;;;;;;15.80;2.03;;;;;;;5.49;63.54;100233.75;5035614;28;20079;-71
2022/02/19 00:42:05;;;;;;;13.65;2.63;;;;;;;5.54;64.15;100233.25;5035826;28;20498;-72
2022/02/19 00:44:31;;;;;;;12.88;2.03;;;;;;;5.54;64.79;100223.00;5035709;28;20029;-71
2022/02/19 00:46:57;;;;;;;12.43;1.73;;;;;;;5.52;64.51;100259.03;5036963;28;20018;-72
2022/02/19 00:49:23;;;;;;;16.67;2.70;;;;;;;5.52;63.23;100251.34;5036817;28;20022;-72
2022/02/19 00:51:48;;;;;;;12.52;2.05;;;;;;;5.57;64.70;100279.06;5035504;28;20025;-72
2022/02/19 00:54:13;;;;;;;12.18;1.95;;;;;;;5.52;64.93;100260.81;5036756;28;20052;-72
2022/02/19 00:56:38;;;;;;;12.05;1.75;;;;;;;5.51;65.23;100275.41;5037043;28;20032;-72
2022/02/19 00:59:04;;;;;;;14.32;2.17;;;;;;;5.53;64.88;100275.25;5037082;28;20059;-71
2022/02/19 01:01:30;;;;;;;10.90;1.77;;;;;;;5.54;65.31;100287.88;5035290;28;20029;-72
2022/02/19 01:03:55;;;;;;;16.27;2.10;;;;;;;5.58;65.13;100296.03;5035363;28;20079;-71
2022/02/19 01:06:21;;;;;;;12.80;2.08;;;;;;;5.54;65.79;100303.25;5036556;28;20021;-72
2022/02/19 01:08:49;;;;;;;16.13;2.05;;;;;;;5.54;65.71;100325.53;5036781;28;20113;-71
2022/02/19 01:11:14;;;;;;;14.68;2.42;;;;;;;5.46;65.20;100318.66;5036869;28;20032;-72
2022/02/19 01:13:40;;;;;;;13.70;2.20;;;;;;;5.39;65.86;100321.09;5034848;28;20049;-71
2022/02/19 01:16:05;;;;;;;18.83;2.00;;;;;;;5.36;66.42;100334.22;5035120;28;20025;-71
2022/02/19 01:18:30;;;;;;;10.73;1.98;;;;;;;5.41;67.21;100333.75;5035043;28;20055;-72
2022/02/19 01:20:55;;;;;;;15.13;2.67;;;;;;;5.43;66.98;100339.50;5036428;28;20086;-71
2022/02/19 01:23:21;;;;;;;16.15;2.30;;;;;;;5.45;66.85;100345.25;5036457;28;20437;-73
2022/02/19 01:25:46;;;;;;;15.75;2.28;;;;;;;5.41;66.37;100338.88;5035933;28;20024;-72
2022/02/19 01:28:11;;;;;;;10.63;2.05;;;;;;;5.45;66.63;100335.00;5034893;28;20036;-72
2022/02/19 01:30:37;;;;;;;13.20;2.00;;;;;;;5.42;66.37;100356.63;5036384;28;20022;-72
2022/02/19 01:33:02;;;;;;;15.73;1.95;;;;;;;5.41;65.64;100354.25;5036230;28;20034;-72
2022/02/19 01:35:28;;;;;;;11.05;2.17;;;;;;;5.43;66.90;100357.44;5036163;28;20025;-71
2022/02/19 01:37:53;;;;;;;14.80;2.20;;;;;;;5.50;66.57;100366.06;5035396;28;20041;-71
2022/02/19 01:40:18;;;;;;;15.15;2.35;;;;;;;5.48;66.78;100364.63;5034706;28;20038;-71
2022/02/19 01:42:43;;;;;;;17.85;2.20;;;;;;;5.34;67.34;100378.91;5034581;28;20035;-71
2022/02/19 01:45:14;;;;;;;11.43;2.35;;;;;;;5.43;66.16;100383.06;5033392;28;20037;-72
2022/02/19 01:47:39;;;;;;;10.05;1.67;;;;;;;5.36;66.17;100384.69;5034503;28;20040;-72
2022/02/19 01:50:06;;;;;;;13.18;1.98;;;;;;;5.37;66.68;100399.09;5034604;28;20385;-70
2022/02/19 01:52:31;;;;;;;17.05;1.98;;;;;;;5.39;66.40;100395.41;5034471;28;20040;-73
2022/02/19 01:54:57;;;;;;;18.30;1.95;;;;;;;5.49;66.34;100417.47;5035768;28;20025;-71
2022/02/19 01:57:24;;;;;;;12.52;2.38;;;;;;;5.43;66.04;100418.94;5035849;28;20022;-71
2022/02/19 01:59:50;;;;;;;26.38;2.70;;;;;;;5.39;65.88;100412.53;5035489;28;20060;-71
2022/02/19 02:02:15;;;;;;;14.00;1.95;;;;;;;5.40;65.57;100427.75;5034448;28;20038;-71
2022/02/19 02:04:41;;;;;;;15.77;1.80;;;;;;;5.43;65.62;100439.44;5035561;28;20138;-71
2022/02/19 02:07:07;;;;;;;11.27;2.00;;;;;;;5.50;65.14;100429.34;5035376;28;20032;-72
2022/02/19 02:09:35;;;;;;;12.38;2.22;;;;;;;5.50;66.10;100444.72;5035446;28;20439;-71
2022/02/19 02:12:02;;;;;;;19.13;2.47;;;;;;;5.42;66.96;100445.53;5034528;28;20056;-70
2022/02/19 02:14:28;;;;;;;12.23;1.95;;;;;;;5.54;65.76;100454.47;5047307;28;20140;-71
2022/02/19 02:16:53;;;;;;;20.05;2.78;;;;;;;5.46;65.62;100451.91;5055274;28;20048;-72
2022/02/19 02:19:18;;;;;;;8.07;1.95;;;;;;;5.48;65.40;100459.47;5055646;28;20321;-71
2022/02/19 02:21:43;;;;;;;16.77;2.05;;;;;;;5.45;66.53;100480.28;5037506;28;20078;-71
2022/02/19 02:24:09;;;;;;;11.10;2.10;;;;;;;5.44;66.04;100484.63;5037453;28;20024;-71
2022/02/19 02:26:35;;;;;;;14.45;2.25;;;;;;;5.45;65.62;100490.53;5037369;28;20071;-72
2022/02/19 02:29:00;;;;;;;14.68;2.63;;;;;;;5.43;66.30;100490.69;5037213;28;20068;-72
2022/02/19 02:31:26;;;;;;;13.13;2.22;;;;;;;5.47;65.80;100497.13;5020454;28;20045;-72
2022/02/19 02:33:52;;;;;;;11.75;1.95;;;;;;;5.38;66.63;100490.34;5055035;28;20024;-71
2022/02/19 02:36:18;;;;;;;10.48;1.70;;;;;;;5.46;66.35;100503.19;5037520;28;20364;-72
2022/02/19 02:38:45;;;;;;;13.75;2.28;;;;;;;5.45;67.17;100500.78;5036899;28;20024;-71
2022/02/19 02:41:11;;;;;;;9.40;1.73;;;;;;;5.42;67.28;100518.09;5036897;28;20021;-72
2022/02/19 02:43:36;;;;;;;21.55;3.63;;;;;;;5.39;66.55;100520.16;5036790;28;20060;-71
2022/02/19 02:46:02;;;;;;;10.40;2.35;;;;;;;5.43;66.97;100516.31;5054261;28;20063;-71
2022/02/19 02:48:27;;;;;;;11.63;1.60;;;;;;;5.43;66.44;100527.38;5036721;28;20419;-71
2022/02/19 02:50:54;;;;;;;16.10;2.75;;;;;;;5.43;67.45;100522.25;5054817;28;20029;-71
2022/02/19 02:53:19;;;;;;;14.90;2.78;;;;;;;5.41;66.46;100518.25;5036445;28;20500;-72
2022/02/19 02:55:44;;;;;;;12.60;2.28;;;;;;;5.38;66.96;100546.75;5036368;28;20029;-72
2022/02/19 02:58:10;;;;;;;15.45;2.40;;;;;;;5.45;66.22;100552.84;5036528;28;20083;-72
2022/02/19 03:00:35;;;;;;;14.05;2.10;;;;;;;5.41;66.57;100546.44;5036413;28;20521;-71
2022/02/19 03:03:01;;;;;;;17.77;2.22;;;;;;;5.42;67.48;100558.28;5054180;28;20036;-72
2022/02/19 03:05:26;;;;;;;16.33;2.53;;;;;;;5.39;67.37;100556.84;5054376;28;20029;-71
2022/02/19 03:07:51;;;;;;;14.07;2.28;;;;;;;5.41;67.02;100566.94;5036660;28;20064;-71
2022/02/19 03:10:18;;;;;;;16.38;2.67;;;;;;;5.50;67.01;100573.69;5054111;28;20384;-71
2022/02/19 03:12:44;;;;;;;19.90;2.00;;;;;;;5.50;67.18;100595.97;5054157;28;20048;-71
2022/02/19 03:15:10;;;;;;;12.02;2.33;;;;;;;5.42;66.65;100573.66;5036196;28;20060;-72
2022/02/19 03:17:37;;;;;;;14.00;2.60;;;;;;;5.46;66.52;100577.50;5054040;28;20104;-72
2022/02/19 03:20:04;;;;;;;13.25;2.25;;;;;;;5.46;67.39;100577.50;5036344;28;20460;-72
2022/02/19 03:22:29;;;;;;;12.75;2.03;;;;;;;5.42;67.54;100594.97;5036183;28;20372;-72
2022/02/19 03:24:54;;;;;;;19.58;2.40;;;;;;;5.34;66.83;100589.81;5036225;28;20033;-71
2022/02/19 03:27:22;;;;;;;14.20;2.40;;;;;;;5.37;65.96;100604.09;5053924;28;20048;-73
2022/02/19 03:29:47;;;;;;;15.23;2.58;;;;;;;5.39;65.46;100620.91;5036118;28;20024;-73
2022/02/19 03:32:12;;;;;;;14.80;2.35;;;;;;;5.41;65.02;100619.00;5036257;28;20077;-73
2022/02/19 03:34:37;;;;;;;10.05;1.98;;;;;;;5.41;65.22;100628.47;5054053;28;20032;-73
2022/02/19 03:37:03;;;;;;;19.00;2.25;;;;;;;5.36;66.06;100636.59;5053833;28;20025;-73
2022/02/19 03:39:28;;;;;;;10.38;2.50;;;;;;;5.41;65.58;100639.50;5053812;28;20373;-73
2022/02/19 03:41:53;;;;;;;11.60;1.95;;;;;;;5.34;65.13;100642.84;5053880;28;20079;-73
2022/02/19 03:44:19;;;;;;;18.15;2.70;;;;;;;5.35;65.00;100644.44;5053736;28;20025;-73
2022/02/19 03:46:44;;;;;;;15.40;2.83;;;;;;;5.32;65.28;100655.81;5053702;28;20464;-72
2022/02/19 03:49:09;;;;;;;15.45;2.55;;;;;;;5.37;65.80;100655.34;5035744;28;20025;-74
2022/02/19 03:51:34;;;;;;;18.92;2.80;;;;;;;5.40;65.05;100652.47;5035764;28;20124;-72
2022/02/19 03:54:00;;;;;;;15.82;2.03;;;;;;;5.27;64.69;100660.59;5035853;28;20040;-72
2022/02/19 03:56:25;;;;;;;18.42;2.85;;;;;;;5.33;65.28;100662.53;5053322;28;20025;-72
2022/02/19 03:58:50;;;;;;;12.55;2.30;;;;;;;5.34;65.40;100676.16;5053576;28;20032;-72
2022/02/19 04:01:16;;;;;;;16.10;2.33;;;;;;;5.38;65.13;100682.56;5035613;28;20029;-72
2022/02/19 04:03:41;;;;;;;14.00;2.53;;;;;;;5.40;64.75;100685.78;5035535;28;20021;-74
2022/02/19 04:06:07;;;;;;;21.27;2.85;;;;;;;5.43;65.43;100688.81;5035644;28;20095;-73
2022/02/19 04:08:32;;;;;;;15.90;2.22;;;;;;;5.34;63.82;100694.88;5056036;28;20025;-73
2022/02/19 04:10:58;;;;;;;15.20;2.65;;;;;;;5.37;65.06;100701.47;5040024;28;20067;-73
2022/02/19 04:13:23;;;;;;;14.45;2.25;;;;;;;5.32;64.29;100713.94;5057277;28;20399;-73
2022/02/19 04:15:48;;;;;;;27.83;2.58;;;;;;;5.35;64.30;100723.88;5039607;28;20027;-73
2022/02/19 04:18:15;;;;;;;13.57;2.08;;;;;;;5.30;64.30;100711.53;5039873;28;20120;-73
2022/02/19 04:20:40;;;;;;;11.27;1.90;;;;;;;5.25;63.57;100733.44;5057751;28;20055;-73
2022/02/19 04:23:06;;;;;;;6.85;1.73;;;;;;;5.28;63.46;100728.81;5039498;28;20044;-73
2022/02/19 04:25:32;;;;;;;13.85;2.42;;;;;;;5.27;64.02;100737.47;5039524;28;20483;-73
2022/02/19 04:28:03;;;;;;;12.18;2.17;;;;;;;5.22;62.48;100726.06;5039244;28;20036;-74
2022/02/19 04:30:28;;;;;;;13.32;2.15;;;;;;;5.24;63.00;100744.66;5039464;28;20080;-73
2022/02/19 04:32:56;;;;;;;16.90;2.25;;;;;;;5.29;63.73;100743.22;5057643;28;20515;-73
2022/02/19 04:35:23;;;;;;;17.60;2.83;;;;;;;5.33;63.86;100759.91;5057352;28;20108;-73
2022/02/19 04:37:48;;;;;;;12.25;2.05;;;;;;;5.33;64.34;100782.97;5057156;28;20132;-73
2022/02/19 04:40:14;;;;;;;14.48;2.42;;;;;;;5.30;63.41;100764.56;5057169;28;20056;-73
2022/02/19 04:42:40;;;;;;;13.45;2.08;;;;;;;5.31;64.30;100782.31;5057178;28;20036;-73
2022/02/19 04:45:06;;;;;;;14.32;1.98;;;;;;;5.36;65.78;100780.09;5056919;28;20024;-73
2022/02/19 04:47:31;;;;;;;16.42;2.40;;;;;;;5.40;66.10;100778.84;5038948;28;20457;-73
2022/02/19 04:49:57;;;;;;;11.55;1.90;;;;;;;5.34;67.60;100796.59;5056773;28;20025;-73
2022/02/19 04:52:22;;;;;;;18.45;2.25;;;;;;;5.26;67.89;100791.41;5056984;28;20544;-73
2022/02/19 04:54:47;;;;;;;13.43;2.00;;;;;;;5.14;67.27;100775.50;5056903;28;20029;-73
2022/02/19 04:57:12;;;;;;;13.80;2.20;;;;;;;5.24;68.51;100804.41;5038772;28;20021;-72
2022/02/19 04:59:38;;;;;;;14.40;2.42;;;;;;;5.30;67.48;100806.34;5038845;28;20027;-73
2022/02/19 05:02:03;;;;;;;17.13;3.05;;;;;;;5.28;67.99;100805.69;5056834;28;20032;-73
2022/02/19 05:04:28;;;;;;;16.77;2.15;;;;;;;5.26;67.75;100809.34;5056428;28;20480;-73
2022/02/19 05:06:53;;;;;;;11.68;2.15;;;;;;;5.34;65.70;100809.41;5056240;28;20033;-74
2022/02/19 05:09:19;;;;;;;15.60;2.78;;;;;;;5.24;66.18;100809.53;5056575;28;20063;-73
2022/02/19 05:11:44;;;;;;;17.80;2.88;;;;;;;5.27;66.09;100810.97;5039272;28;20033;-73
2022/02/19 05:14:09;;;;;;;13.27;2.22;;;;;;;5.34;66.08;100827.34;5056115;28;20120;-73
2022/02/19 05:16:35;;;;;;;10.50;2.13;;;;;;;5.30;65.91;100834.53;5056972;28;20029;-73
2022/02/19 05:19:00;;;;;;;13.35;2.30;;;;;;;5.20;65.58;100828.69;5056163;28;20029;-73
2022/02/19 05:21:25;;;;;;;11.63;1.85;;;;;;;5.14;65.16;100824.19;5038645;28;20029;-73
2022/02/19 05:23:50;;;;;;;20.63;2.83;;;;;;;5.16;65.08;100835.09;5038307;28;20021;-73
2022/02/19 05:26:16;;;;;;;14.40;2.20;;;;;;;5.18;65.61;100840.88;5038191;28;20455;-73
2022/02/19 05:28:41;;;;;;;11.00;1.92;;;;;;;5.17;65.50;100827.22;5056256;28;20025;-73
2022/02/19 05:31:07;;;;;;;15.60;2.28;;;;;;;5.14;66.64;100842.91;5056160;28;20029;-73
2022/02/19 05:33:32;;;;;;;14.90;2.35;;;;;;;5.15;65.70;100841.13;5056272;28;20112;-73
2022/02/19 05:35:57;;;;;;;13.30;2.50;;;;;;;5.20;66.61;100850.00;5038061;28;20074;-74
2022/02/19 05:38:23;;;;;;;16.45;2.88;;;;;;;5.23;65.33;100848.88;5056200;28;20035;-72
2022/02/19 05:40:49;;;;;;;16.58;2.50;;;;;;;5.26;65.85;100852.91;5038054;28;20719;-72
2022/02/19 05:43:14;;;;;;;11.85;1.80;;;;;;;5.19;66.14;100840.69;5055665;28;20020;-72
2022/02/19 05:45:41;;;;;;;11.90;2.20;;;;;;;5.17;66.90;100857.19;5055788;28;20037;-73
2022/02/19 05:48:06;;;;;;;12.95;2.15;;;;;;;5.17;66.47;100857.19;5055801;28;20405;-72
2022/02/19 05:50:32;;;;;;;8.32;2.00;;;;;;;5.12;67.07;100867.06;5055577;28;20064;-72
2022/02/19 05:52:57;;;;;;;18.70;2.30;;;;;;;5.20;66.93;100870.47;5037977;28;20024;-72
2022/02/19 05:55:22;;;;;;;20.80;2.60;;;;;;;5.23;65.96;100868.59;5037791;28;20029;-72
2022/02/19 05:57:48;;;;;;;11.57;2.42;;;;;;;5.14;66.54;100877.97;5055900;28;20535;-72
2022/02/19 06:00:15;;;;;;;12.20;2.00;;;;;;;5.16;65.94;100882.00;5037771;28;20036;-73
2022/02/19 06:02:40;;;;;;;19.90;2.35;;;;;;;5.13;66.74;100871.25;5037777;28;20032;-73
2022/02/19 06:05:06;;;;;;;16.95;2.60;;;;;;;5.09;67.20;100882.72;5055812;28;20094;-73
2022/02/19 06:07:31;;;;;;;12.43;2.10;;;;;;;4.98;66.54;100882.03;5055034;28;20035;-72
2022/02/19 06:09:56;;;;;;;18.38;2.38;;;;;;;4.96;66.70;100872.88;5037808;28;20025;-73
2022/02/19 06:12:22;;;;;;;10.77;2.05;;;;;;;4.98;66.59;100883.78;5037478;28;20043;-73
2022/02/19 06:14:47;;;;;;;12.15;2.78;;;;;;;5.05;66.37;100889.91;5037396;28;20044;-74
2022/02/19 06:17:12;;;;;;;19.45;2.53;;;;;;;5.04;66.72;100893.44;5055484;28;20452;-73
2022/02/19 06:19:38;;;;;;;17.38;2.13;;;;;;;5.09;67.39;100898.94;5055272;28;20025;-74
2022/02/19 06:22:03;;;;;;;20.52;2.80;;;;;;;5.10;67.35;100889.47;5037373;28;20048;-74
2022/02/19 06:24:29;;;;;;;13.40;2.25;;;;;;;5.07;66.95;100910.28;5055070;28;20025;-73
2022/02/19 06:26:54;;;;;;;18.88;2.55;;;;;;;5.08;67.66;100915.22;5054935;28;20494;-73
2022/02/19 06:29:19;;;;;;;18.45;2.65;;;;;;;5.11;66.82;100925.19;5037507;28;20035;-74
2022/02/19 06:31:45;;;;;;;12.48;2.13;;;;;;;5.08;67.45;100935.72;5036662;28;20029;-74
2022/02/19 06:34:10;;;;;;;14.25;2.50;;;;;;;5.05;66.82;100932.66;5037128;28;20028;-74
2022/02/19 06:36:35;;;;;;;11.07;1.83;;;;;;;5.06;67.29;100936.81;5054789;28;20021;-75
2022/02/19 06:39:01;;;;;;;16.55;2.72;;;;;;;5.16;67.46;100950.38;5037103;28;20029;-74
2022/02/19 06:41:26;;;;;;;13.98;2.42;;;;;;;5.11;67.15;100950.78;5036842;28;20364;-73
2022/02/19 06:43:52;;;;;;;21.02;2.50;;;;;;;5.06;67.06;100965.00;5036937;28;20025;-74
2022/02/19 06:46:17;;;;;;;16.50;2.92;;;;;;;5.12;67.15;100964.41;5054544;28;20110;-75
2022/02/19 06:48:43;;;;;;;22.30;2.88;;;;;;;5.10;67.43;100967.13;5054665;28;20029;-74
2022/02/19 06:51:08;;;;;;;13.23;2.58;;;;;;;5.10;68.19;100972.25;5036964;28;20064;-74
2022/02/19 06:53:33;;;;;;;15.77;2.22;;;;;;;5.19;67.56;100978.25;5036910;28;20032;-75
2022/02/19 06:55:58;;;;;;;16.92;2.33;;;;;;;5.12;68.26;100979.78;5054697;28;20063;-75
2022/02/19 06:58:24;;;;;;;13.52;2.33;;;;;;;5.11;67.72;100983.31;5036519;28;20021;-75
2022/02/19 07:00:52;;;;;;;15.40;2.13;;;;;;;5.23;67.31;100989.81;5054844;28;20021;-74
2022/02/19 07:03:19;;;;;;;12.45;2.20;;;;;;;5.26;67.38;101007.44;5036673;28;20419;-75
2022/02/19 07:05:44;;;;;;;13.02;2.40;;;;;;;5.24;67.26;100994.00;5020321;28;20048;-74
2022/02/19 07:08:10;;;;;;;14.75;2.63;;;;;;;5.26;67.65;101012.56;5036565;28;20456;-74
2022/02/19 07:10:35;;;;;;;11.90;2.00;;;;;;;5.19;67.23;101006.44;5054652;28;20025;-74
2022/02/19 07:13:01;;;;;;;12.68;2.28;;;;;;;5.21;67.53;101004.53;5054474;28;20360;-74
2022/02/19 07:15:27;;;;;;;13.57;2.08;;;;;;;5.14;67.96;101006.06;5032876;28;20053;-75
2022/02/19 07:17:54;;;;;;;13.00;1.88;;;;;;;5.25;67.37;101018.66;5032938;28;20014;-75
2022/02/19 07:20:22;;;;;;;16.92;2.38;;;;;;;5.22;67.59;101018.97;5016786;28;20057;-75
2022/02/19 07:22:48;;;;;;;12.07;1.88;;;;;;;5.24;66.89;101022.19;5033055;28;20029;-75
2022/02/19 07:25:13;;;;;;;13.68;2.15;;;;;;;5.28;67.21;101032.94;5032858;28;20060;-75
2022/02/19 07:27:40;;;;;;;12.48;1.70;;;;;;;5.25;66.79;101035.81;5033842;28;20064;-74
2022/02/19 07:30:07;;;;;;;18.60;2.10;;;;;;;5.30;66.97;101031.84;5033999;28;20032;-74
2022/02/19 07:32:37;;;;;;;15.93;2.22;;;;;;;5.29;66.26;101039.66;5034096;28;20473;-76
2022/02/19 07:35:04;;;;;;;11.90;2.10;;;;;;;5.31;66.59;101041.13;5032688;28;20025;-74
2022/02/19 07:37:30;;;;;;;14.30;1.95;;;;;;;5.27;66.25;101042.41;5032848;28;20021;-73
2022/02/19 07:39:55;;;;;;;13.05;2.10;;;;;;;5.36;67.10;101044.06;5032836;28;20021;-74
2022/02/19 07:42:20;;;;;;;17.33;2.20;;;;;;;5.38;66.22;101049.03;5033746;28;20029;-75
2022/02/19 07:44:46;;;;;;;16.73;2.22;;;;;;;5.48;67.00;101060.03;5032724;28;20033;-75
2022/02/19 07:47:11;;;;;;;13.50;1.85;;;;;;;5.48;65.74;101049.78;5031602;28;20021;-75
2022/02/19 08:00:32;;;;;;;14.15;2.58;;;;;;;5.72;65.62;101085.06;5033569;28;20040;-74
2022/02/19 08:02:57;;;;;;;14.48;1.73;;;;;;;5.61;65.76;101077.59;5032562;28;20025;-74
2022/02/19 08:05:23;;;;;;;13.75;2.30;;;;;;;5.84;64.85;101086.47;5033861;28;20029;-75
2022/02/19 08:07:48;;;;;;;8.38;1.85;;;;;;;5.77;65.37;101077.75;5033795;28;20084;-75
2022/02/19 08:10:13;;;;;;;14.48;2.10;;;;;;;6.92;61.03;101089.53;5032475;28;20083;-75
2022/02/19 08:12:39;;;;;;;17.55;2.00;;;;;;;6.25;63.14;101088.56;5032999;28;20141;-75
2022/02/19 08:15:05;;;;;;;10.55;1.83;;;;;;;6.15;63.22;101098.09;5032392;28;20054;-74
2022/02/19 08:17:31;;;;;;;11.88;2.30;;;;;;;6.09;64.81;101095.19;5033622;28;20024;-74
2022/02/19 08:19:57;;;;;;;14.50;2.38;;;;;;;6.03;64.04;101094.97;5032218;28;20033;-74
2022/02/19 08:22:22;;;;;;;15.73;2.35;;;;;;;6.90;61.91;101099.16;5032072;28;20377;-75
2022/02/19 08:24:48;;;;;;;9.60;1.88;;;;;;;8.76;55.92;101095.19;5033573;28;20071;-74
2022/02/19 08:27:13;;;;;;;10.98;2.30;;;;;;;10.14;51.22;101084.91;5032333;28;20049;-76
2022/02/19 08:29:38;;;;;;;10.27;2.13;;;;;;;10.55;49.41;101097.41;5033522;28;20051;-75
2022/02/19 08:32:04;;;;;;;13.63;2.38;;;;;;;11.40;48.41;101104.56;5033738;28;20029;-75
2022/02/19 08:34:29;;;;;;;14.77;2.60;;;;;;;11.57;48.10;101101.75;5031771;28;20036;-75
2022/02/19 08:36:56;;;;;;;15.48;2.60;;;;;;;12.73;45.56;101107.34;5032342;28;20124;-75
2022/02/19 08:39:23;;;;;;;11.07;2.30;;;;;;;12.11;45.64;101114.97;5033427;28;20021;-75
2022/02/19 08:41:49;;;;;;;18.88;2.50;;;;;;;10.34;48.00;101126.56;5032015;28;20032;-75
2022/02/19 08:44:14;;;;;;;10.10;2.47;;;;;;;9.25;54.10;101118.16;5015628;28;20029;-76
2022/02/19 08:46:39;;;;;;;11.38;2.63;;;;;;;9.01;55.06;101125.03;5033320;28;20036;-75
2022/02/19 08:49:05;;;;;;;13.85;2.65;;;;;;;8.53;54.93;101129.38;5033455;28;20033;-75
2022/02/19 08:51:30;;;;;;;16.55;2.30;;;;;;;8.16;57.47;101135.03;5032144;28;20041;-77
2022/02/19 08:53:55;;;;;;;13.75;3.10;;;;;;;7.96;57.28;101136.34;5035147;28;20033;-75
2022/02/19 08:56:21;;;;;;;19.73;2.42;;;;;;;7.51;58.30;101140.13;5035679;28;20443;-75
2022/02/19 08:58:46;;;;;;;10.48;2.30;;;;;;;9.41;53.71;101128.38;5036955;28;20031;-75
2022/02/19 09:01:11;;;;;;;13.20;1.92;;;;;;;10.25;50.80;101140.50;5035572;28;20108;-75
2022/02/19 09:03:37;;;;;;;13.82;2.60;;;;;;;9.93;53.94;101142.38;5035549;28;20021;-75
2022/02/19 09:06:03;;;;;;;14.10;2.70;;;;;;;11.72;46.36;101147.28;5036874;28;20033;-76
2022/02/19 09:08:28;;;;;;;14.73;2.53;;;;;;;10.72;51.14;101157.50;5035345;28;20468;-75
2022/02/19 09:10:53;;;;;;;8.95;2.20;;;;;;;9.80;51.43;101144.72;5036734;28;20084;-75
2022/02/19 09:13:19;;;;;;;15.82;2.47;;;;;;;8.94;54.47;101149.06;5034397;28;20026;-74
2022/02/19 09:15:45;;;;;;;15.20;2.60;;;;;;;10.03;51.58;101148.09;5054939;28;20104;-76
2022/02/19 09:18:11;;;;;;;16.02;2.67;;;;;;;10.20;53.04;101161.69;5038391;28;20067;-75
2022/02/19 09:20:36;;;;;;;10.27;2.33;;;;;;;8.81;53.62;101150.41;5056442;28;20049;-75
2022/02/19 09:23:01;;;;;;;13.00;2.50;;;;;;;11.41;47.87;101160.50;5056572;28;20357;-75
2022/02/19 09:25:27;;;;;;;11.73;2.28;;;;;;;9.89;51.38;101167.72;5038574;28;20111;-75
2022/02/19 09:27:52;;;;;;;7.70;1.73;;;;;;;9.54;52.00;101161.34;5038315;28;20021;-74
2022/02/19 09:30:19;;;;;;;14.68;2.33;;;;;;;9.46;54.19;101177.66;5054049;28;20130;-75
2022/02/19 09:32:44;;;;;;;15.65;2.42;;;;;;;8.13;56.89;101169.63;5053596;28;20024;-75
2022/02/19 09:35:12;;;;;;;14.68;2.08;;;;;;;7.95;57.84;101174.13;5035607;28;20024;-74
2022/02/19 09:37:38;;;;;;;8.30;2.10;;;;;;;7.87;57.79;101179.28;5035875;28;20472;-75
2022/02/19 09:40:04;;;;;;;17.88;2.85;;;;;;;10.81;51.74;101190.03;5035864;28;20111;-75
2022/02/19 09:42:31;;;;;;;15.43;2.50;;;;;;;12.02;46.93;101209.34;5053851;28;20083;-76
2022/02/19 09:44:57;;;;;;;13.90;2.00;;;;;;;13.23;41.85;101196.94;5054654;28;20545;-75
2022/02/19 09:47:30;;;;;;;13.15;2.42;;;;;;;14.63;40.32;101186.72;5038030;28;20039;-75
2022/02/19 09:49:56;;;;;;;18.77;2.70;;;;;;;15.52;38.49;101190.38;5055919;28;20369;-76
2022/02/19 09:52:23;;;;;;;12.32;2.20;;;;;;;14.32;38.54;101188.13;5055827;28;20357;-75
2022/02/19 09:54:49;;;;;;;13.95;2.83;;;;;;;15.48;37.68;101191.81;5056052;28;20017;-75
2022/02/19 09:57:15;;;;;;;12.98;2.25;;;;;;;17.48;34.12;101186.28;5056728;28;20107;-75
2022/02/19 09:59:40;;;;;;;9.38;2.33;;;;;;;16.70;35.28;101177.38;5038606;28;20495;-76
2022/02/19 10:02:07;;;;;;;9.40;2.75;;;;;;;16.62;34.77;101166.44;5055904;28;20111;-76
2022/02/19 10:04:33;;;;;;;14.10;2.60;;;;;;;17.23;35.32;101194.25;5055079;28;20049;-75
2022/02/19 10:07:10;;;;;;;11.60;2.15;;;;;;;12.19;44.16;101186.56;5055052;28;20492;-74
2022/02/19 10:09:40;;;;;;;13.48;2.35;;;;;;;12.26;43.41;101194.41;5055412;28;20045;-75
2022/02/19 10:12:10;;;;;;;12.10;2.20;;;;;;;9.87;50.52;101190.34;5037352;28;20345;-74
2022/02/19 10:14:37;;;;;;;12.70;2.38;;;;;;;10.08;48.22;101194.06;5037242;28;20139;-75
2022/02/19 10:17:17;;;;;;;12.68;2.40;;;;;;;10.08;48.13;101206.97;5037442;28;20025;-76
2022/02/19 10:20:00;;;;;;;10.95;2.25;;;;;;;9.61;49.39;101211.31;5037599;28;20052;-76
2022/02/19 10:22:31;;;;;;;12.43;2.33;;;;;;;8.41;52.99;101204.59;5037519;28;20029;-75
2022/02/19 10:25:00;;;;;;;13.63;2.30;;;;;;;13.90;41.37;101205.75;5037293;28;20082;-76
2022/02/19 10:28:01;;;;;;;11.52;2.20;;;;;;;12.74;41.63;101208.28;5054534;28;20083;-74
2022/02/19 10:30:27;;;;;;;10.68;1.90;;;;;;;11.33;43.96;101201.22;5013878;28;20122;-75
2022/02/19 10:33:04;;;;;;;11.40;2.10;;;;;;;14.19;40.12;101204.56;5037442;28;20448;-75
2022/02/19 10:35:40;;;;;;;9.57;1.80;;;;;;;9.27;49.76;101224.53;5021394;28;20170;-75
2022/02/19 10:38:11;;;;;;;13.60;2.13;;;;;;;8.72;50.97;101231.28;5037426;28;20021;-75
2022/02/19 10:40:46;;;;;;;10.05;1.80;;;;;;;8.51;55.20;101221.47;5055907;28;20089;-75
2022/02/19 10:43:29;;;;;;;13.07;2.40;;;;;;;9.82;52.56;101262.31;5037802;28;20024;-75
2022/02/19 10:46:03;;;;;;;12.25;2.13;;;;;;;9.80;52.39;101235.88;5036495;28;20423;-75
2022/02/19 10:48:31;;;;;;;13.20;2.47;;;;;;;10.25;51.43;101234.28;5036466;28;20040;-75
2022/02/19 10:51:18;;;;;;;12.52;2.22;;;;;;;16.00;39.05;101229.00;5036645;28;20517;-76
2022/02/19 10:53:55;;;;;;;10.75;2.15;;;;;;;15.95;37.48;101218.41;5036437;28;20415;-75
2022/02/19 10:56:20;;;;;;;13.13;2.20;;;;;;;14.67;38.84;101224.31;5054742;28;20427;-75
2022/02/19 10:59:08;;;;;;;9.40;2.05;;;;;;;11.66;43.89;101224.91;5035435;28;20040;-75
2022/02/19 11:01:49;;;;;;;11.30;2.20;;;;;;;15.75;37.58;101250.59;5053955;28;20109;-76
2022/02/19 11:04:16;;;;;;;17.73;2.42;;;;;;;16.41;36.55;101249.31;5054361;28;20020;-76
2022/02/19 11:06:41;;;;;;;10.70;2.00;;;;;;;14.84;37.92;101241.09;5054210;28;20029;-73
2022/02/19 11:09:08;;;;;;;9.95;2.10;;;;;;;14.83;40.06;101242.13;5054849;28;20032;-76
2022/02/19 11:11:43;;;;;;;11.23;2.08;;;;;;;13.07;42.26;101247.38;5053976;28;20024;-74
2022/02/19 11:14:11;;;;;;;11.93;2.10;;;;;;;10.28;47.89;101213.31;5054409;28;20102;-75
2022/02/19 11:16:37;;;;;;;10.70;2.25;;;;;;;10.02;50.72;101215.41;5054266;28;20056;-74
2022/02/19 11:19:04;;;;;;;9.20;1.95;;;;;;;11.19;48.59;101216.59;5054128;28;20108;-76
2022/02/19 11:21:30;;;;;;;19.67;2.40;;;;;;;13.31;44.44;101229.75;5056101;28;20024;-74
2022/02/19 11:24:00;;;;;;;15.82;2.47;;;;;;;15.06;39.13;101222.66;5055198;28;20062;-74
2022/02/19 11:26:26;;;;;;;11.68;2.00;;;;;;;12.01;45.47;101223.28;5054385;28;20021;-74
2022/02/19 11:28:56;;;;;;;10.82;2.17;;;;;;;12.31;44.54;101225.72;5036243;28;20529;-75
2022/02/19 11:31:25;;;;;;;14.15;2.47;;;;;;;14.80;39.26;101215.72;5054743;28;20102;-75